Tiempo atmosférico en la estación meteorológica de León Aeropuerto, León (916 m.)



Fecha
DESCASC
Temp. máxima en grados centígrados (hora)
DESCASC
Temp. mínima en grados centígrados (hora)
DESCASC
Temp. media en grados centígrados
DESCASC
Racha de viento máxima en m/sg (hora)
DESCASC
Velocidad máxima media en intervalos de 10 minutos(hora)
DESCASC
Precipitaciones diarias en mm
DESCASC
Precipitaciones de 00:00 a 06:00 en mm
DESCASC
Precipitaciones de 06:00 a 12:00 en mm
DESCASC
Precipitaciones de 12:00 a 18:00 en mm
DESCASC
Precipitaciones de 18:00 a 24:00 en mm
DESCASC

Gráficas

Temp. máximas Temp. mínimas Temp. medias Precipitaciones Rachas de viento máximas Velocidades máximas media en intervalos de 10 minutos

Datos horarios

Fecha y hora oficial Temperatura (ºC) Velocidad del viento (km/h) Dirección del viento Racha (km/h) Dirección de racha Precipitación (mm) Presión (hPa) Tendencia (hPa) Humedad (%)
2020-03-28 23:00:00 5 12 Noroeste 15 Noroeste 0 914 1.4 57
2020-03-28 22:00:00 6.3 5 Norte 9 Norte 0 913.8 1.6 50
2020-03-28 21:00:00 10.4 3 Sur 5 Sur 0 913.4 1.7 35
2020-03-28 20:00:00 11.8 3 Sur 11 Sur 0 912.6 1 32
2020-03-28 19:00:00 13.4 9 Sur 17 Sur 0 912.2 0.5 29
2020-03-28 18:00:00 14.3 9 Sur 26 Sur 0 911.7 -0.3 26
2020-03-28 17:00:00 14.5 11 Sur 21 Sur 0 911.6 -0.9 25
2020-03-28 16:00:00 14.9 14 Sur 21 Sudeste 0 911.7 -1 25
2020-03-28 15:00:00 14.5 14 Sur 22 Sur 0 912 -1 24
2020-03-28 14:00:00 13.9 7 Sur 18 Sur 0 912.5 -0.7 27
2020-03-28 13:00:00 12.8 8 Sudeste 17 Este 0 912.7 -0.5 30
2020-03-28 12:00:00 11.6 7 Este 15 Sudeste 0 913 0.2 34
2020-03-28 11:00:00 9.6 6 Este 13 Este 0 913.2 0.8 42
2020-03-28 10:00:00 7.8 7 Este 13 Este 0 913.2 1.4 47
2020-03-28 09:00:00 5.2 4 Nordeste 8 Norte 0 912.8 1.5 59
2020-03-28 08:00:00 0.5 0 Calma 11 Noroeste 0 912.4 1.4 73
2020-03-28 07:00:00 0 9 Noroeste 13 Noroeste 0 911.8 1.1 70
2020-03-28 06:00:00 0.6 7 Norte 15 Norte 0 911.3 0.5 67
2020-03-28 05:00:00 0.7 10 Norte 15 Norte 0 911 0.1 68
2020-03-28 04:00:00 0.4 12 Norte 15 Norte 0 910.7 0.1 68
2020-03-28 03:00:00 0.8 10 Norte 15 Norte 0 910.8 0.3 68
2020-03-28 02:00:00 0.6 12 Norte 15 Norte 0 910.9 0.8 68
2020-03-28 01:00:00 1.8 11 Norte 15 Norte 0 910.6 1 59
2020-03-28 00:00:00 1.9 12 Norte 15 Norte 0 910.5 1.6 57
2020-03-27 23:00:00 2.4 12 Norte 15 Norte 0 910.1 1.9 56
2020-03-27 22:00:00 3.8 10 Norte 13 Norte 0 909.6 1.8 52
2020-03-27 21:00:00 5.9 0 Calma 5 Sudeste 0 908.9 1.5 44
2020-03-27 20:00:00 8.9 4 Sur 15 Sur 0 908.2 1.1 32
2020-03-27 19:00:00 10.2 12 Sudeste 24 Sudeste 0 907.8 0.5 30
2020-03-27 18:00:00 10.6 13 Este 33 Sudeste 0 907.4 0 26
2020-03-27 17:00:00 11.5 19 Sudeste 30 Sudeste 0 907.1 -0.6 24
2020-03-27 16:00:00 11.2 23 Sudeste 35 Sudeste 0 907.3 -0.8 24
2020-03-27 15:00:00 10.8 18 Sudeste 41 Este 0 907.4 -1.3 29
2020-03-27 14:00:00 9.5 21 Sudeste 35 Este 0 907.7 -1.2 32
2020-03-27 13:00:00 8.6 19 Este 33 Este 0 908.1 -0.4 33
2020-03-27 12:00:00 7.2 16 Este 32 Sudeste 0 908.7 0.7 37
2020-03-27 11:00:00 5.3 19 Este 33 Este 0 908.9 1.2 44
2020-03-27 10:00:00 3.5 16 Nordeste 26 Nordeste 0 908.5 1 53
2020-03-27 09:00:00 1.3 9 Norte 15 Norte 0 908 0.7 69
2020-03-27 08:00:00 -1.7 7 Norte 13 Norte 0 907.7 0.8 86
2020-03-27 07:00:00 -3 8 Norte 11 Norte 0 907.5 0.8 87
2020-03-27 06:00:00 -1.1 0 Calma 9 Sudeste 0 907.3 0.7 82
2020-03-27 05:00:00 -0.8 4 Sudoeste 17 Sur 0 906.9 0.1 81
2020-03-27 04:00:00 -0.1 6 Sudeste 13 Sur 0 906.7 0.2 68
2020-03-27 03:00:00 0.1 4 Norte 18 Norte 0 906.6 0 68
2020-03-27 02:00:00 2.4 11 Nordeste 33 Nordeste 0 906.8 0.2 61
2020-03-27 01:00:00 2.3 11 Oeste 32 Norte 0 906.5 0.3 62
2020-03-27 00:00:00 2.5 9 Norte 28 Norte 0 906.6 0.3 61
2020-03-26 23:00:00 2.9 13 Norte 39 Norte 0 906.6 0.5 59
2020-03-26 22:00:00 3.8 29 Norte 42 Norte 0 906.2 1 57
2020-03-26 21:00:00 4.8 23 Norte 39 Norte 0 906.3 1.3 54
2020-03-26 20:00:00 6.7 15 Norte 35 Norte 0 906.1 1.5 44
2020-03-26 19:00:00 9.2 23 Norte 37 Norte 0 905.2 0.4 37
2020-03-26 18:00:00 11.1 22 Norte 45 Norte 0 905 -0.1 32
2020-03-26 17:00:00 13 22 Norte 39 Norte 0 904.6 -1.2 26
2020-03-26 16:00:00 13.9 24 Norte 39 Norte 0 904.8 -1.4 21
2020-03-26 15:00:00 13.8 24 Norte 33 Norte 0 905.1 -1.5 24
2020-03-26 14:00:00 13.5 12 Norte 26 Norte 0 905.8 -1.4 29
2020-03-26 13:00:00 11.7 11 Sudeste 18 Sudeste 0 906.2 -1.4 33
2020-03-26 12:00:00 9.5 15 Sudoeste 24 Sudoeste 0 906.6 -1.3 40
2020-03-26 11:00:00 7.4 10 Sudoeste 17 Sudoeste 0 907.2 -0.8 50
2020-03-26 10:00:00 4.5 4 Sur 9 Nordeste 0 907.6 -0.2 64
2020-03-26 09:00:00 1.7 6 Nordeste 9 Nordeste 0 907.9 0.4 77
2020-03-26 08:00:00 -2.5 4 Noroeste 5 Noroeste 0 908 0.9 85
2020-03-26 07:00:00 -1.5 0 Calma 11 Sudeste 0 907.8 0.2 74
2020-03-26 06:00:00 -1 6 Sudeste 24 Sudeste 0 907.5 -0.5 48
2020-03-26 05:00:00 0.3 11 Noroeste 21 Noroeste 0 907.1 -1.3 35
2020-03-26 04:00:00 1.2 17 Noroeste 22 Noroeste 0 907.6 -1 34
2020-03-26 03:00:00 1.4 17 Noroeste 21 Noroeste 0 908 -0.8 36
2020-03-26 02:00:00 2.3 14 Noroeste 21 Noroeste 0 908.4 -0.9 39
2020-03-26 01:00:00 2.5 15 Noroeste 22 Noroeste 0 908.6 -0.7 45
2020-03-26 00:00:00 3.2 19 Noroeste 24 Noroeste 0 908.8 -0.5 47
2020-03-25 23:00:00 3.2 12 Noroeste 17 Noroeste 0 909.3 0.2 50
2020-03-25 22:00:00 6.5 5 Norte 21 Norte 0 909.3 0.6 34
2020-03-25 21:00:00 6.8 8 Noroeste 21 Norte 0 909.3 0.8 37
2020-03-25 20:00:00 10.3 13 Norte 33 Norte 0 909.1 0.7 31
2020-03-25 19:00:00 13.5 18 Norte 39 Norte 0 908.7 0.2 21
2020-03-25 18:00:00 15.3 21 Norte 39 Norte 0 908.5 -0.1 19
2020-03-25 17:00:00 16.5 23 Norte 37 Norte 0 908.4 -0.6 18
2020-03-25 16:00:00 17.2 21 Norte 35 Norte 0 908.5 -1 18
2020-03-25 15:00:00 17.4 14 Norte 30 Norte 0 908.6 -1.2 20
2020-03-25 14:00:00 16.9 13 Norte 28 Norte 0 909 -1.2 24
2020-03-25 13:00:00 16.4 7 Noroeste 28 Norte 0 909.5 -0.9 26
2020-03-25 12:00:00 15.6 18 Norte 30 Norte 0 909.8 -0.7 29
2020-03-25 11:00:00 13.9 5 Este 17 Nordeste 0 910.2 -0.4 52
2020-03-25 10:00:00 10.8 3 Sudeste 9 Este 0 910.4 -0.1 64
2020-03-25 09:00:00 7.9 3 Este 5 Este 0 910.5 -0.2 72
2020-03-25 08:00:00 4 0 Calma 13 Noroeste 0 910.6 -0.3 85
2020-03-25 07:00:00 3.5 9 Noroeste 13 Noroeste 0 910.5 -0.7 84
2020-03-25 06:00:00 3.5 6 Noroeste 11 Noroeste 0 910.7 -0.7 84
2020-03-25 05:00:00 3.9 3 Noroeste 8 Noroeste 0 910.9 -0.7 79
2020-03-25 04:00:00 4.7 3 Oeste 13 Noroeste 0 911.2 -0.6 77
2020-03-25 03:00:00 5.4 11 Noroeste 15 Noroeste 0 911.4 -0.6 76
2020-03-25 02:00:00 6.3 11 Noroeste -- -- 0 911.6 -0.3 70
2020-03-25 01:00:00 7.6 4 Noroeste 5 Noroeste 0 911.8 0 68
2020-03-25 00:00:00 9.7 4 Sudeste 5 Sudeste 0 912 0.6 60
2020-03-24 23:00:00 10.2 5 Sudeste 17 Sudeste 0 911.9 0.8 58
2020-03-24 22:00:00 11.3 11 Sudeste 17 Sudeste 0 911.8 1.1 56
2020-03-24 21:00:00 11.3 0 Calma 9 Sudeste 0 911.4 1 55
2020-03-24 20:00:00 12.9 5 Sudeste 17 Sudeste 0 911.1 0.8 49
2020-03-24 19:00:00 14.9 12 Sudeste 24 Sudeste 0 910.7 0.1 42
2020-03-24 18:00:00 16 12 Sudeste 22 Sudeste 0 910.4 -0.8 38
2020-03-24 17:00:00 16 16 Sudeste 30 Este 0 910.3 -1.6 38
2020-03-24 16:00:00 15.8 9 Sudeste 22 Sudeste 0 910.6 -1.8 41
2020-03-24 15:00:00 15.2 9 Sudeste 18 Este 0 911.2 -1.7 45
2020-03-24 14:00:00 14.3 12 Este 24 Sudeste 0 911.9 -1.2 48
2020-03-24 13:00:00 13.1 8 Sudeste 26 Sudeste 0 912.4 -1 54
2020-03-24 12:00:00 12.2 11 Este 30 Sudeste 0 912.9 -0.3 58
2020-03-24 11:00:00 11.5 17 Este 26 Este 0 913.1 0.3 61
2020-03-24 10:00:00 10.2 18 Este 28 Este 0 913.4 0.9 66
2020-03-24 09:00:00 8.7 13 Nordeste 21 Este 0 913.2 0.8 72
2020-03-24 08:00:00 6.2 7 Nordeste 11 Nordeste 0 912.8 0.5 83
2020-03-24 07:00:00 6.3 9 Nordeste 13 Nordeste 0 912.5 0.1 81
2020-03-24 06:00:00 6.8 8 Norte 13 Norte 0 912.4 -0.1 82
2020-03-24 05:00:00 6 7 Nordeste 13 Nordeste 0 912.3 -0.2 85
2020-03-24 04:00:00 6.3 8 Nordeste 15 Nordeste 0 912.4 -0.1 85
2020-03-24 03:00:00 6.5 9 Nordeste 15 Nordeste 0 912.5 0.2 84
2020-03-24 02:00:00 7.6 9 Nordeste 15 Nordeste 0 912.5 0.6 80
2020-03-24 01:00:00 8.6 9 Nordeste 13 Este 0 912.5 1 75
2020-03-24 00:00:00 9 7 Este 26 Este 0 912.3 1.2 73
2020-03-23 23:00:00 9.7 12 Este 32 Este 0 911.9 1.3 69
2020-03-23 22:00:00 10.9 18 Este 30 Este 0 911.5 1.3 63
2020-03-23 21:00:00 11.3 11 Este 15 Este 0 911.1 1.1 57
2020-03-23 20:00:00 12.2 6 Sudeste 9 Sudeste 0 910.6 0.6 49
2020-03-23 19:00:00 13.2 9 Sudeste 17 Sur 0 910.2 0 46
2020-03-23 18:00:00 14.3 10 Sudeste 28 Este 0 910 -0.7 41
2020-03-23 17:00:00 14.4 11 Sudeste 28 Sudeste 0 910 -0.9 41
2020-03-23 16:00:00 14.1 17 Sudeste 28 Sudeste 0 910.2 -1.4 42
2020-03-23 15:00:00 13.2 14 Sudeste 26 Sudeste 0 910.7 -1.1 45
2020-03-23 14:00:00 13.7 14 Sudeste 28 Sudeste 0 910.9 -1.2 46
2020-03-23 13:00:00 13 7 Sudeste 17 Este 0 911.6 -0.6 48
2020-03-23 12:00:00 11.6 9 Este 18 Este 0 911.8 0.1 54
2020-03-23 11:00:00 10.4 11 Este 21 Nordeste 0 912.1 0.7 61
2020-03-23 10:00:00 8.4 9 Nordeste 15 Nordeste 0 912.2 1.3 67
2020-03-23 09:00:00 7 8 Norte 15 Norte 0 911.7 1.2 70
2020-03-23 08:00:00 2.8 11 Norte 13 Norte 0 911.4 1.2 79
2020-03-23 07:00:00 2.3 10 Norte 17 Norte 0 910.9 0.7 79
2020-03-23 06:00:00 2.8 11 Norte 13 Norte 0 910.5 0.3 76
2020-03-23 05:00:00 3.1 8 Norte 13 Norte 0 910.2 -0.1 77
2020-03-23 04:00:00 2.8 12 Norte 13 Norte 0 910.2 -0.1 80
2020-03-23 03:00:00 3.9 6 Norte 17 Norte 0 910.2 -0.2 80
2020-03-23 02:00:00 3.3 7 Norte 15 Norte 0 910.3 0.1 81
2020-03-23 01:00:00 3.2 12 Norte 15 Norte 0 910.3 0.6 84
2020-03-23 00:00:00 4.6 6 Norte 9 Norte 0 910.4 1.5 80
2020-03-22 23:00:00 5.2 9 Norte 15 Norte 0 910.2 2.3 82
2020-03-22 22:00:00 6.7 10 Norte 17 Este 0 909.7 1.8 81
2020-03-22 21:00:00 8.6 12 Norte 22 Norte 0 908.9 1.4 71
2020-03-22 20:00:00 9.1 12 Norte 30 Norte 0.1 907.9 1.1 74
2020-03-22 19:00:00 9.5 13 Norte 30 Noroeste 0 907.9 1.5 73
2020-03-22 18:00:00 11.6 19 Norte 30 Norte 0 907.5 0.8 64
2020-03-22 17:00:00 14.1 10 Sur 21 Sudeste 0 906.8 -0.4 46
2020-03-22 16:00:00 12.3 10 Este 35 Sudeste 0 906.4 -1.3 49
2020-03-22 15:00:00 15.4 12 Sudeste 28 Sudeste 0 906.7 -1.3 45
2020-03-22 14:00:00 14.8 12 Sudeste 28 Sudeste 0 907.2 -0.9 47
2020-03-22 13:00:00 14 12 Este 24 Nordeste 0 907.7 -0.1 51
2020-03-22 12:00:00 13.2 10 Sudeste 18 Sudeste 0 908 0.5 55
2020-03-22 11:00:00 11.6 5 Sudeste 11 Sudeste 0 908.1 1 63
2020-03-22 10:00:00 9.6 4 Nordeste 9 Nordeste 0 907.8 1.1 78
2020-03-22 09:00:00 6.9 4 Norte 8 Nordeste 0 907.5 0.9 93
2020-03-22 08:00:00 4 7 Noroeste -- -- 0 907.1 0.7 91
2020-03-22 07:00:00 5.4 5 Noroeste 9 Noroeste 0 906.7 0.1 89
2020-03-22 06:00:00 6.5 3 Oeste 8 Nordeste 0 906.6 -0.1 92
2020-03-22 05:00:00 6.7 5 Norte 11 Este 0 906.4 -0.4 92
2020-03-22 04:00:00 6.2 9 Nordeste 13 Noroeste 0 906.6 0.1 92
2020-03-22 03:00:00 6.8 3 Oeste 13 Sudeste 0 906.7 0.3 91
2020-03-22 02:00:00 6.5 7 Este 11 Este 0 906.8 0.7 88
2020-03-22 01:00:00 6.9 6 Sur 13 Sudeste 0 906.5 0.5 83
2020-03-22 00:00:00 7.6 9 Norte 15 Norte 0 906.4 0.8 78
2020-03-21 23:00:00 7.3 10 Norte 13 Norte 0 906.1 0.7 82
2020-03-21 22:00:00 8.3 9 Norte -- -- 0 906 1.1 82
2020-03-21 21:00:00 8.7 -- -- -- -- 0 905.6 1 78
2020-03-21 20:00:00 10.4 4 Noroeste 11 Sur 0 905.4 0.8 70
2020-03-21 19:00:00 12.6 9 Sudeste 17 Sudeste 0 904.9 -0.1 59
2020-03-21 18:00:00 13.2 12 Sudeste 22 Sudeste 0 904.6 -1 56
2020-03-21 17:00:00 14.2 9 Sudeste 15 Sur 0 904.6 -1.6 53
2020-03-21 16:00:00 14.1 9 Sudeste 17 Este 0 905 -1.6 55
2020-03-21 15:00:00 12.4 9 Este 18 Este 0 905.6 -1.2 61
2020-03-21 14:00:00 12 11 Este 24 Nordeste 0 906.2 -0.5 62
2020-03-21 13:00:00 10.9 13 Sudeste 24 Sudeste 0 906.6 -0.3 67
2020-03-21 12:00:00 10.2 15 Este 22 Este 0 906.8 0 69
2020-03-21 11:00:00 9.6 14 Este 24 Este 0 906.7 -0.3 73
2020-03-21 10:00:00 8.7 14 Este 22 Este 0 906.9 -0.1 80
2020-03-21 09:00:00 7.9 14 Este 21 Este 0 906.8 -0.2 84
2020-03-21 08:00:00 7.6 12 Este 18 Este 0 907 -0.2 86
2020-03-21 07:00:00 7.6 11 Este 24 Este 0 907 -0.4 85
2020-03-21 06:00:00 7.7 14 Este 22 Este 0 907 -0.7 83
2020-03-21 05:00:00 8 12 Este 26 Este 0 907.2 -0.7 83
2020-03-21 04:00:00 8.4 12 Este 18 Este 0 907.4 -0.9 88
2020-03-21 03:00:00 8.2 9 Este 15 Este 0 907.7 -0.8 94
2020-03-21 02:00:00 8.3 8 Este 13 Este 0 907.9 -0.8 97
2020-03-21 01:00:00 8.5 10 Este 17 Este 0 908.3 -0.4 97
2020-03-21 00:00:00 8.2 9 Nordeste 13 Nordeste 0 908.5 0 94
2020-03-20 23:00:00 8.8 9 Norte 13 Norte 0 908.7 0.3 93
2020-03-20 22:00:00 8.9 8 Norte 9 Norte 0 908.7 0.4 95
2020-03-20 21:00:00 9.4 6 Noroeste 9 Noroeste 0 908.5 0.1 93
2020-03-20 20:00:00 9.6 9 Oeste 13 Oeste 0.7 908.4 -0.3 93
2020-03-20 19:00:00 10.1 8 Oeste 15 Sudoeste 0 908.3 -0.5 89
2020-03-20 18:00:00 11.4 10 Sudeste 21 Este 0.2 908.4 -0.9 71
2020-03-20 17:00:00 11.9 13 Sudeste 21 Sudeste 0 908.7 -1.1 66
2020-03-20 16:00:00 11.7 14 Sudeste 22 Este 0 908.8 -1.2 66
2020-03-20 15:00:00 11.8 13 Sudeste 24 Sudeste 0 909.3 -1 65
2020-03-20 14:00:00 10.9 13 Sudeste 21 Sudeste 0 909.8 -0.8 71
2020-03-20 13:00:00 10.9 12 Este 22 Nordeste 0 910 -0.5 72
2020-03-20 12:00:00 9.9 14 Este 21 Este 0 910.3 0.1 75
2020-03-20 11:00:00 8.8 13 Este 18 Este 0 910.6 0.6 79
2020-03-20 10:00:00 8.1 14 Este 21 Este 0 910.5 0.6 81
2020-03-20 09:00:00 7.6 9 Nordeste 17 Nordeste 0 910.2 0.3 84
2020-03-20 08:00:00 7.4 10 Este 15 Este 0 910 0.1 82
2020-03-20 07:00:00 7.6 9 Nordeste 13 Este 0 909.9 -0.2 79
2020-03-20 06:00:00 7.6 9 Nordeste 13 Nordeste 0 909.9 -0.5 75
2020-03-20 05:00:00 7.7 10 Nordeste 15 Este 0 909.9 -0.7 73
2020-03-20 04:00:00 7.4 9 Nordeste 13 Norte 0 910.1 -0.8 72
2020-03-20 03:00:00 7.2 8 Norte 13 Norte 0 910.4 -0.9 67
2020-03-20 02:00:00 7.5 9 Norte 11 Nordeste 0 910.6 -1 60
2020-03-20 01:00:00 8.7 9 Nordeste 13 Nordeste 0 910.9 -0.7 58
2020-03-20 00:00:00 9.6 9 Nordeste 13 Nordeste 0 911.3 -0.3 54
2020-03-19 23:00:00 10 10 Nordeste 13 Nordeste 0 911.6 0 56
2020-03-19 22:00:00 9.2 7 Norte 11 Norte 0 911.6 0 65
2020-03-19 21:00:00 10.1 5 Norte 8 Norte 0 911.6 -0.1 68
2020-03-19 20:00:00 12 0 Calma 9 Este 0 911.6 -0.5 56
2020-03-19 19:00:00 13.6 7 Este 13 Sudeste 0 911.6 -0.8 48
2020-03-19 18:00:00 14.2 10 Sudeste 21 Sudeste 0 911.7 -1.2 40
2020-03-19 17:00:00 15 14 Sudeste 24 Sudeste 0 912.1 -1.6 35
2020-03-19 16:00:00 15.4 15 Sudeste 26 Sur 0 912.4 -2.1 48
2020-03-19 15:00:00 16.4 14 Sudeste 28 Sudeste 0 912.9 -2.3 50
2020-03-19 14:00:00 16.4 13 Sudeste 18 Sudeste 0 913.7 -2 53
2020-03-19 13:00:00 15.4 10 Este 21 Sudeste 0 914.5 -1.3 56
2020-03-19 12:00:00 12.9 11 Sudeste 21 Este 0 915.2 -0.6 64
2020-03-19 11:00:00 12.5 10 Este 17 Este 0 915.7 -0.1 64
2020-03-19 10:00:00 11.6 9 Nordeste 13 Nordeste 0 915.8 0 69
2020-03-19 09:00:00 9.2 9 Norte 13 Norte 0 915.8 0 78
2020-03-19 08:00:00 6.7 9 Norte 13 Norte 0 915.8 0 83
2020-03-19 07:00:00 7.3 11 Norte 15 Norte 0 915.8 -0.2 81
2020-03-19 06:00:00 7.5 8 Norte 15 Norte 0 915.8 -0.9 82
2020-03-19 05:00:00 7.7 10 Norte 13 Norte 0 915.8 -1.3 81
2020-03-19 04:00:00 7.6 11 Norte 13 Norte 0 916 -1.3 82
2020-03-19 03:00:00 7.8 10 Norte 15 Norte 0 916.7 -1 79
2020-03-19 02:00:00 8.8 10 Norte 17 Norte 0 917.1 -0.9 77
2020-03-19 01:00:00 8.3 12 Norte 13 Norte 0 917.3 -0.9 79
2020-03-19 00:00:00 9.2 5 Nordeste 9 Norte 0 917.7 -0.4 77
2020-03-18 23:00:00 9.5 8 Norte 11 Norte 0 918 0 77
2020-03-18 22:00:00 9.9 8 Norte 13 Noroeste 0 918.2 0.4 75
2020-03-18 21:00:00 11.5 9 Noroeste 11 Noroeste 0 918.1 0.3 70
2020-03-18 20:00:00 13.7 4 Oeste 11 Sur 0 918 0.1 62
2020-03-18 19:00:00 15.8 6 Sur 11 Sur 0 917.8 -0.6 52
2020-03-18 18:00:00 16.6 8 Sur 15 Sur 0 917.8 -0.9 48
2020-03-18 17:00:00 17.3 10 Sur 18 Sudeste 0 917.9 -1.6 47
2020-03-18 16:00:00 17.7 10 Sudeste 21 Sudeste 0 918.4 -1.8 48
2020-03-18 15:00:00 16.7 4 Sudeste 17 Este 0 918.7 -1.8 51
2020-03-18 14:00:00 15.6 10 Sudeste 18 Sudeste 0 919.5 -1.7 55
2020-03-18 13:00:00 15.1 6 Sudeste 17 Sudeste 0 920.2 -1.1 57
2020-03-18 12:00:00 13.5 8 Este 13 Este 0 920.5 -0.6 62
2020-03-18 11:00:00 12.3 8 Este 15 Este 0 921.2 0 66
2020-03-18 10:00:00 10.3 6 Nordeste 9 Nordeste 0 921.3 0 76
2020-03-18 09:00:00 7.7 5 Nordeste 8 Norte 0 921.1 0 89
2020-03-18 08:00:00 5.7 5 Norte 9 Norte 0 921.2 0.1 89
2020-03-18 07:00:00 6.3 7 Norte 9 Norte 0 921.3 0 88
2020-03-18 06:00:00 7.2 5 Noroeste -- -- 0 921.1 -0.7 88
2020-03-18 05:00:00 7.3 7 Norte 11 Norte 0 921.1 -0.8 91
2020-03-18 04:00:00 5.8 8 Norte 13 Norte 0 921.3 -1.1 91
2020-03-18 03:00:00 6.1 11 Norte 15 Norte 0 921.8 -0.7 89
2020-03-18 02:00:00 6.7 8 Norte 15 Norte 0 921.9 -0.7 88
2020-03-18 01:00:00 7.5 10 Norte 13 Norte 0 922.4 0.1 86
2020-03-18 00:00:00 7.2 8 Norte 15 Norte 0 922.5 0.7 85
2020-03-17 23:00:00 7 10 Norte 17 Nordeste 0 922.6 1.3 83
2020-03-17 22:00:00 8 8 Norte 13 Nordeste 0 922.3 1.5 80
2020-03-17 21:00:00 9.7 11 Este 21 Este 0 921.8 1.4 75
2020-03-17 20:00:00 10.4 10 Este 17 Este 0 921.3 1.1 71
2020-03-17 19:00:00 11.6 13 Este 26 Este 0 920.8 0.8 66
2020-03-17 18:00:00 12.1 15 Este 37 Este 0 920.4 0.6 64
2020-03-17 17:00:00 12.5 23 Este 33 Este 0 920.2 0.3 63
2020-03-17 16:00:00 12.8 21 Sudeste 37 Este 0 920 0 60
2020-03-17 15:00:00 13.3 22 Sudeste 35 Este 0 919.8 -0.2 58
2020-03-17 14:00:00 13.6 27 Este 42 Este 0 919.9 0 56
2020-03-17 13:00:00 13.8 25 Este 39 Este 0 920 0.3 54
2020-03-17 12:00:00 13.6 27 Este 41 Este 0 920 -- 53
2020-03-17 11:00:00 13.2 26 Este 41 Este 0 919.9 -- 52
2020-03-17 10:00:00 10.1 6 Nordeste -- -- -- 919.7 -- 59
2020-03-17 09:00:00 -- -- -- -- -- -- -- -- --
2020-03-17 08:00:00 -- -- -- -- -- -- -- -- --
2020-03-17 07:00:00 -- -- -- -- -- -- -- -- --
2020-03-17 06:00:00 -- -- -- -- -- -- -- -- --
2020-03-17 05:00:00 -- -- -- -- -- -- -- -- --
2020-03-17 04:00:00 -- -- -- -- -- -- -- -- --
2020-03-17 03:00:00 -- -- -- -- -- -- -- -- --
2020-03-17 02:00:00 -- -- -- -- -- -- -- -- --
2020-03-17 01:00:00 -- -- -- -- -- -- -- -- --
2020-03-17 00:00:00 -- -- -- -- -- -- -- -- --
2020-03-16 23:00:00 -- -- -- -- -- -- -- -- --
2020-03-16 22:00:00 4.5 30 Norte 48 Norte 0 914.4 1.4 57
2020-03-16 21:00:00 4.5 29 Norte 55 Norte 0 913.7 1.6 57
2020-03-16 20:00:00 4.3 27 Norte 54 Norte 0 913.4 1.4 62
2020-03-16 19:00:00 5.6 29 Norte 54 Norte 0 913 2 55
2020-03-16 18:00:00 6.9 33 Norte 54 Norte 0 912.1 1.4 51
2020-03-16 17:00:00 8.8 24 Norte 50 Norte 0 912 1.2 44
2020-03-16 16:00:00 9.2 29 Norte 54 Norte 0 911 -0.1 49
2020-03-16 15:00:00 8.9 33 Norte 59 Norte 0 910.7 0.3 49
2020-03-16 14:00:00 8.7 37 Norte 55 Norte 0 910.8 0.5 46
2020-03-16 13:00:00 8.2 29 Norte 55 Norte 0 911.1 1.6 50
2020-03-16 12:00:00 6.3 28 Norte 42 Norte 0.1 910.4 1.3 55
2020-03-16 11:00:00 5.2 23 Norte 50 Norte 0 910.3 1.5 62
2020-03-16 10:00:00 4.6 30 Norte 48 Norte 0 909.5 1.5 65
2020-03-16 09:00:00 3 25 Norte 37 Norte 0 909.1 1.9 73
2020-03-16 08:00:00 2.1 13 Noroeste 35 Norte 0 908.8 1.4 77
2020-03-16 07:00:00 2.2 18 Norte 35 Norte 0 908 1.1 75
2020-03-16 06:00:00 1.8 21 Norte 41 Norte 0 907.2 -0.3 79
2020-03-16 05:00:00 2.1 19 Norte 39 Nordeste 0 907.4 0.2 77
2020-03-16 04:00:00 1.2 13 Noroeste 24 Norte 0 906.9 -0.6 84
2020-03-16 03:00:00 1 8 Norte 15 Norte 0 907.5 -0.2 88
2020-03-16 02:00:00 0.6 12 Norte 18 Norte 0.6 907.2 -0.1 93
2020-03-16 01:00:00 0.4 10 Norte 21 Norte 1.2 907.5 0 95
2020-03-16 00:00:00 0.3 9 Norte 26 Norte 1.5 907.7 1.8 97
2020-03-15 23:00:00 0.2 11 Norte 24 Norte 1 907.3 1.6 95
2020-03-15 22:00:00 1.4 15 Noroeste 41 Noroeste 0.6 907.5 3.5 88
2020-03-15 21:00:00 2.5 27 Noroeste 39 Noroeste 0.3 905.9 2.2 79
2020-03-15 20:00:00 5.7 17 Noroeste 35 Oeste 0 905.7 1 58
2020-03-15 19:00:00 8.6 27 Oeste 42 Oeste 0 904 -1.1 65
2020-03-15 18:00:00 14.2 13 Sur 30 Oeste 0 903.7 -1.7 36
2020-03-15 17:00:00 13.8 21 Oeste 39 Oeste 0 904.7 -1.6 32
2020-03-15 16:00:00 13.5 25 Oeste 35 Oeste 0 905.1 -2.2 41
2020-03-15 15:00:00 15.7 12 Sudoeste 24 Oeste 0 905.4 -2.8 35
2020-03-15 14:00:00 15.1 14 Sudoeste 22 Sudoeste 0 906.3 -2.8 36
2020-03-15 13:00:00 12.8 13 Sur 21 Sur 0 907.3 -2.4 49
2020-03-15 12:00:00 11.2 11 Sudeste 22 Sur 0 908.2 -1.2 51
2020-03-15 11:00:00 9.8 10 Sudeste 17 Sudeste 0 909.1 -0.5 51
2020-03-15 10:00:00 7.7 6 Sudeste 13 Sudeste 0 909.7 -0.1 55
2020-03-15 09:00:00 4.8 7 Nordeste 9 Nordeste 0 909.4 -0.8 67
2020-03-15 08:00:00 2.5 3 Nordeste 13 Norte 0 909.6 -1 68
2020-03-15 07:00:00 2 9 Norte 13 Norte 0 909.8 -1.6 69
2020-03-15 06:00:00 2 9 Norte 13 Norte 0 910.2 -1.9 70
2020-03-15 05:00:00 3.3 6 Norte 13 Norte 0 910.6 -2 65
2020-03-15 04:00:00 4 10 Norte 13 Norte 0 911.4 -1.8 63
2020-03-15 03:00:00 4.1 11 Norte 15 Norte 0 912.1 -1.6 65
2020-03-15 02:00:00 4.5 9 Norte 13 Norte 0 912.6 -1.3 64
2020-03-15 01:00:00 5.1 8 Norte 11 Norte 0 913.2 -0.8 62
2020-03-15 00:00:00 -- 8 Norte -- -- 0 913.7 -0.3 --
2020-03-14 23:00:00 7 6 Norte 8 Norte 0 913.9 0.1 56
2020-03-14 22:00:00 7.6 5 Norte 8 Norte 0 914 0.3 59
2020-03-14 21:00:00 9.8 2 Sur 5 Sur 0 914 0.2 49
2020-03-14 20:00:00 13.1 5 Sur 11 Sudeste 0 913.8 -0.2 37
2020-03-14 19:00:00 15.5 10 Sur 18 Sudeste 0 913.7 -0.7 34
2020-03-14 18:00:00 16.8 13 Sur 22 Sur 0 913.8 -1 27
2020-03-14 17:00:00 16.8 14 Sur 22 Sur 0 914 -1.5 28
2020-03-14 16:00:00 16.6 12 Sur 24 Sur 0 914.4 -1.7 29
2020-03-14 15:00:00 15.4 14 Sur 22 Sur 0 914.8 -1.6 35
2020-03-14 14:00:00 14 12 Sur 21 Sur 0 915.5 -1.4 38
2020-03-14 13:00:00 12.5 11 Sur 18 Sur 0 916.1 -0.8 51
2020-03-14 12:00:00 11 9 Sur 17 Sudoeste 0 916.4 -0.3 56
2020-03-14 11:00:00 8.8 12 Sudoeste 18 Sudoeste 0 916.9 0.6 65
2020-03-14 10:00:00 6.8 5 Este 9 Este 0 916.9 1 69
2020-03-14 09:00:00 3 3 Este 8 Oeste 0 916.7 0.9 67
2020-03-14 08:00:00 -0.6 4 Oeste 5 Oeste 0 916.3 0.8 78
2020-03-14 07:00:00 -0.1 2 Sudeste 9 Norte 0 915.9 0.1 73
2020-03-14 06:00:00 0.2 7 Oeste 11 Norte 0 915.8 -0.4 80
2020-03-14 05:00:00 0.4 6 Noroeste 9 Noroeste 0 915.5 -0.8 91
2020-03-14 04:00:00 1.2 3 Norte 8 Nordeste 0 915.8 -0.7 88
2020-03-14 03:00:00 3.2 4 Nordeste 13 Oeste 0 916.2 -0.2 91
2020-03-14 02:00:00 3.1 11 Oeste 15 Oeste 0 916.3 -0.5 88
2020-03-14 01:00:00 3.9 8 Oeste 11 Oeste 0 916.5 0.6 88
2020-03-14 00:00:00 -- 8 Oeste 13 Oeste 0 916.4 0.7 --
2020-03-13 23:00:00 5.2 9 Oeste 11 Oeste 0 916.8 2.1 83
2020-03-13 22:00:00 7.7 3 Sur 13 Sudeste 0 915.9 1.7 74
2020-03-13 21:00:00 9.7 5 Sudeste 11 Sudeste 0 915.7 1.9 67
2020-03-13 20:00:00 11.2 9 Sudeste 17 Sur 0 914.7 0.9 63
2020-03-13 19:00:00 13.9 9 Sudeste 17 Sur 0 914.2 0.1 52
2020-03-13 18:00:00 14.9 10 Sur 21 Sur 0 913.8 -0.8 49
2020-03-13 17:00:00 15.2 11 Sur 17 Sur 0 913.8 -1.4 49
2020-03-13 16:00:00 14.3 8 Sur 15 Sudoeste 0 914.1 -1.7 51
2020-03-13 15:00:00 12.9 10 Sudoeste 17 Sur 0 914.6 -1.6 55
2020-03-13 14:00:00 12.8 4 Sur 18 Sudeste 0 915.2 -1.1 56
2020-03-13 13:00:00 11 7 Sur 11 Sur 0 915.8 -0.4 60
2020-03-13 12:00:00 9.8 2 Sudoeste 13 Norte 0 916.2 0.2 62
2020-03-13 11:00:00 8.6 9 Norte 13 Nordeste 0 916.3 0.4 65
2020-03-13 10:00:00 8 10 Nordeste 13 Norte 0 916.2 0.6 69
2020-03-13 09:00:00 7.6 4 Este 8 Este 0 916 0.7 71
2020-03-13 08:00:00 7.1 6 Este 9 Este 0 915.9 0.7 73
2020-03-13 07:00:00 6.6 5 Norte 9 Nordeste 0 915.6 0.3 78
2020-03-13 06:00:00 7.3 4 Oeste 8 Sudoeste 0 915.3 -0.2 81
2020-03-13 05:00:00 7.6 4 Sur 5 Sur 0 915.2 -0.4 77
2020-03-13 04:00:00 8.3 3 Nordeste 5 Norte 0 915.3 -0.5 73
2020-03-13 03:00:00 8.3 0 Calma 8 Noroeste 0 915.5 -0.5 75
2020-03-13 02:00:00 8.6 0 Calma 5 Oeste 0 915.6 -0.3 74
2020-03-13 01:00:00 8.7 4 Norte 11 Nordeste 0 915.8 0.3 72
2020-03-13 00:00:00 8.8 9 Nordeste 17 Norte 0 916 0.9 71
2020-03-12 23:00:00 8.9 9 Norte 24 Norte 0 915.9 1.3 71
2020-03-12 22:00:00 9.6 15 Norte 22 Norte 0 915.5 1.7 69
2020-03-12 21:00:00 10.1 15 Norte 26 Nordeste 0 915.1 1.8 67
2020-03-12 20:00:00 11.4 13 Norte 28 Norte 0 914.6 1.4 65
2020-03-12 19:00:00 15.6 11 Norte 21 Sudeste 0 913.8 0.5 61
2020-03-12 18:00:00 17.1 14 Sudeste 21 Sudeste 0 913.3 -0.7 55
2020-03-12 17:00:00 18.4 6 Sudeste 15 Sur 0 913.2 -1.3 46
2020-03-12 16:00:00 18.7 8 Sur 21 Sur 0 913.3 -2 45
2020-03-12 15:00:00 18.2 10 Sur 18 Sudeste 0 914 -1.6 45
2020-03-12 14:00:00 18.5 11 Sudeste 21 Sudeste 0 914.5 -1.3 40
2020-03-12 13:00:00 17.3 9 Sudeste 15 Sudeste 0 915.3 -0.5 47
2020-03-12 12:00:00 15.9 5 Este 11 Este 0 915.6 0.1 52
2020-03-12 11:00:00 12.9 4 Este 8 Este 0 915.8 0.7 60
2020-03-12 10:00:00 11.5 4 Nordeste 11 Norte 0 915.8 0.9 66
2020-03-12 09:00:00 8.8 0 Calma 8 Norte 0 915.5 0.4 76
2020-03-12 08:00:00 6.7 4 Norte 5 Norte 0 915.1 0 79
2020-03-12 07:00:00 7.8 4 Oeste 8 Noroeste 0 914.9 -0.7 74
2020-03-12 06:00:00 8.1 4 Noroeste 8 Noroeste 0 915.1 -1.1 73
2020-03-12 05:00:00 8.3 5 Norte 11 Norte 0 915.1 -1.4 73
2020-03-12 04:00:00 7.4 10 Norte 11 Norte 0 915.6 -1.1 76
2020-03-12 03:00:00 7.9 4 Norte 8 Norte 0 916.2 -0.7 73
2020-03-12 02:00:00 9.1 0 Calma 9 Norte 0 916.5 -0.4 69
2020-03-12 01:00:00 9.7 6 Norte 11 Norte 0 916.7 0 68
2020-03-12 00:00:00 10.5 4 Norte 8 Este 0 916.9 0.3 65
2020-03-11 23:00:00 10.9 6 Este 13 Noroeste 0 916.9 0.3 66
2020-03-11 22:00:00 12.4 9 Noroeste 11 Noroeste 0 916.7 0.2 60
2020-03-11 21:00:00 13.4 9 Norte 11 Norte 0 916.6 0.1 56
2020-03-11 20:00:00 14.7 9 Norte 11 Norte 0 916.6 -0.1 54
2020-03-11 19:00:00 19.1 4 Nordeste 13 Sur 0 916.5 -0.5 37
2020-03-11 18:00:00 21.4 9 Sudeste 15 Sur 0 916.5 -1.1 31
2020-03-11 17:00:00 21 11 Sur 22 Sur 0 916.7 -1.8 32
2020-03-11 16:00:00 20.3 12 Sur 22 Sur 0 917 -2.1 34
2020-03-11 15:00:00 18.6 12 Sur 22 Sur 0 917.6 -2 38
2020-03-11 14:00:00 17.3 9 Sur 17 Sur 0 918.5 -1.3 40
2020-03-11 13:00:00 16.2 9 Sur 15 Sudeste 0 919.1 -0.6 40
2020-03-11 12:00:00 14.3 4 Sudeste 11 Sudeste 0 919.6 0.2 43
2020-03-11 11:00:00 11.6 6 Este 11 Este 0 919.8 0.6 48
2020-03-11 10:00:00 9.8 6 Este 11 Norte 0 919.7 0.7 48
2020-03-11 09:00:00 6.1 7 Norte 11 Norte 0 919.4 0.6 69
2020-03-11 08:00:00 2.7 3 Norte 8 Nordeste 0 919.2 0.5 75
2020-03-11 07:00:00 3.4 0 Calma 8 Noroeste 0 919 0.1 70
2020-03-11 06:00:00 3.5 6 Norte 9 Norte 0 918.8 -0.5 70
2020-03-11 05:00:00 3.8 0 Calma 8 Oeste 0 918.7 -0.7 69
2020-03-11 04:00:00 5.1 4 Norte 8 Norte 0 918.9 -0.8 63
2020-03-11 03:00:00 7.8 6 Este 24 Noroeste 0 919.3 -0.5 54
2020-03-11 02:00:00 9.4 17 Oeste 26 Noroeste 0 919.4 -0.5 60
2020-03-11 01:00:00 10 21 Oeste 30 Oeste 0 919.7 -0.1 55
2020-03-11 00:00:00 11 18 Oeste 30 Oeste 0 919.8 0.4 48
2020-03-10 23:00:00 10.7 23 Oeste 30 Oeste 0 919.9 0.7 44
2020-03-10 22:00:00 12.4 13 Oeste 26 Oeste 0 919.8 0.7 34
2020-03-10 21:00:00 14.8 12 Oeste 30 Oeste 0 919.4 0.5 27
2020-03-10 20:00:00 15.6 18 Oeste 28 Oeste 0 919.2 0 22
2020-03-10 19:00:00 17.9 17 Oeste 39 Oeste 0 919.1 -0.3 17
2020-03-10 18:00:00 20 24 Oeste 39 Oeste 0 918.9 -0.7 13
2020-03-10 17:00:00 20.3 24 Oeste 45 Oeste 0 919.2 -1 13
2020-03-10 16:00:00 20.4 28 Oeste 42 Oeste 0 919.4 -1.6 12
2020-03-10 15:00:00 18.9 24 Oeste 39 Oeste -- 919.6 -1.8 22
2020-03-10 14:00:00 17 16 Sudoeste 26 Sudoeste 0 920.2 -1.3 33
2020-03-10 13:00:00 15.1 15 Sur 22 Sur 0 921 -0.4 43
2020-03-10 12:00:00 12.9 11 Sur 17 Sur 0 921.4 0.3 47
2020-03-10 11:00:00 10.5 5 Sudeste 11 Sudeste 0 921.5 0.7 55
2020-03-10 10:00:00 7.2 4 Nordeste 8 Nordeste 0 921.4 0.8 65
2020-03-10 09:00:00 4.4 0 Calma 8 Norte 0 921.1 0.6 73
2020-03-10 08:00:00 3.4 2 Sudeste 13 Norte 0 920.8 0.5 75
2020-03-10 07:00:00 3.3 6 Norte 11 Norte 0 920.6 0.4 77
2020-03-10 06:00:00 4.7 0 Calma 9 Sudeste 0 920.5 -0.1 70
2020-03-10 05:00:00 4.4 0 Calma 5 Sur 0 920.3 -0.5 73
2020-03-10 04:00:00 4.8 4 Oeste 8 Oeste 0 920.2 -1 69
2020-03-10 03:00:00 5.5 3 Norte 13 Norte 0 920.6 -0.8 66
2020-03-10 02:00:00 4.9 7 Noroeste 9 Noroeste 0 920.8 -0.9 68
2020-03-10 01:00:00 5.3 0 Calma 9 Oeste 0 921.2 -0.2 69
2020-03-10 00:00:00 6.1 6 Noroeste 17 Noroeste 0 921.4 0.1 65
2020-03-09 23:00:00 7 8 Oeste 18 Oeste 0 921.7 1 63
2020-03-09 22:00:00 7 10 Oeste 13 Oeste 0 921.4 1 63
2020-03-09 21:00:00 8.2 12 Oeste 18 Oeste 0 921.3 0.9 60
2020-03-09 20:00:00 9.8 11 Oeste 18 Oeste 0 920.7 0.6 53
2020-03-09 19:00:00 12.3 15 Oeste 28 Oeste 0 920.4 0.2 45
2020-03-09 18:00:00 13.9 18 Oeste 28 Oeste 0 920.4 0.1 40
2020-03-09 17:00:00 14.1 22 Oeste 30 Oeste 0 920.1 -1 40
2020-03-09 16:00:00 14.7 18 Oeste 28 Oeste 0 920.2 -1.7 35
2020-03-09 15:00:00 13.9 9 Sur 24 Sudoeste 0 920.3 -2 38
2020-03-09 14:00:00 12.3 16 Sur 30 Sudoeste 0 921.1 -0.8 44
2020-03-09 13:00:00 10.4 14 Sudoeste 24 Oeste 0 921.9 0 53
2020-03-09 12:00:00 8.9 9 Oeste 21 Oeste 0 922.3 1.2 55
2020-03-09 11:00:00 7.2 11 Oeste 24 Oeste 0 921.9 0.8 62
2020-03-09 10:00:00 5.7 15 Oeste 24 Noroeste 0 921.9 1.4 71
2020-03-09 09:00:00 3.4 14 Oeste 22 Oeste 0 921.1 1.3 78
2020-03-09 08:00:00 1.6 12 Oeste 17 Oeste 0 921.1 1.6 85
2020-03-09 07:00:00 1.7 12 Oeste 17 Noroeste 0 920.5 0.4 87
2020-03-09 06:00:00 1.6 0 Calma 18 Oeste 0 919.8 -0.1 86
2020-03-09 05:00:00 2.3 15 Oeste 21 Oeste 0 919.5 -0.3 83
2020-03-09 04:00:00 2.1 9 Oeste 22 Oeste 0 920.1 0.1 81
2020-03-09 03:00:00 3.1 18 Oeste 22 Oeste 0 919.9 0.2 80
2020-03-09 02:00:00 4 13 Sudoeste 26 Oeste 0 919.8 0.4 77
2020-03-09 01:00:00 5.1 16 Oeste 30 Oeste 0 920 0.7 70
2020-03-09 00:00:00 4.7 20 Oeste 30 Oeste 0 919.7 0.8 78
2020-03-08 23:00:00 5.7 22 Oeste 30 Oeste 0 919.4 1.1 73
2020-03-08 22:00:00 5.6 14 Oeste 24 Oeste 0 919.3 1.5 77
2020-03-08 21:00:00 7 16 Oeste 30 Oeste 0 918.9 1.5 74
2020-03-08 20:00:00 8.6 25 Oeste 45 Oeste 0 918.3 0.9 66
2020-03-08 19:00:00 10.2 31 Oeste 54 Oeste 0 917.8 0.5 65
2020-03-08 18:00:00 11.7 33 Oeste 52 Oeste 0 917.4 0.1 58
2020-03-08 17:00:00 11.3 39 Oeste 58 Oeste 0 917.4 -0.9 61
2020-03-08 16:00:00 11.1 35 Oeste 54 Oeste 0 917.3 -1.7 65
2020-03-08 15:00:00 11.3 34 Oeste 52 Oeste 0 917.3 -1.5 66
2020-03-08 14:00:00 11.6 29 Oeste 45 Oeste 0 918.3 -0.8 68
2020-03-08 13:00:00 8.6 25 Oeste 41 Oeste 0 919 0.1 78
2020-03-08 12:00:00 7.7 22 Sudoeste 30 Oeste 0 918.8 0.3 78
2020-03-08 11:00:00 8.3 14 Sudoeste 22 Oeste 0 919.1 0.7 73
2020-03-08 10:00:00 6.5 6 Este 24 Oeste 0 918.9 0.9 80
2020-03-08 09:00:00 4.7 10 Oeste 18 Oeste 0 918.5 0.7 88
2020-03-08 08:00:00 2.3 0 Calma 11 Nordeste 0 918.4 0.6 83
2020-03-08 07:00:00 2.2 6 Oeste 9 Oeste 0 918 -0.1 85
2020-03-08 06:00:00 1.4 0 Calma 11 Oeste 0 917.8 -0.9 85
2020-03-08 05:00:00 0.5 5 Norte 11 Norte 0 917.8 -1 84
2020-03-08 04:00:00 -0.3 9 Norte 13 Norte 0 918.1 -0.7 83
2020-03-08 03:00:00 1.5 2 Nordeste 13 Norte 0 918.7 -0.5 80
2020-03-08 02:00:00 1.7 5 Oeste 13 Norte 0 918.8 -0.5 79
2020-03-08 01:00:00 1.9 6 Norte 9 Norte 0 918.8 -0.6 74
2020-03-08 00:00:00 3.5 8 Norte 13 Norte 0 919.2 -0.3 66
2020-03-07 23:00:00 3.8 5 Norte 11 Norte 0 919.3 0 66
2020-03-07 22:00:00 5.7 0 Calma 15 Noroeste 0 919.4 0.4 65
2020-03-07 21:00:00 6.5 11 Oeste 17 Noroeste 0 919.5 0.7 66
2020-03-07 20:00:00 8.4 7 Oeste 15 Oeste 0 919.3 0.3 58
2020-03-07 19:00:00 13.1 7 Sudoeste 21 Sur 0 919 -0.5 46
2020-03-07 18:00:00 13.9 13 Sudoeste 32 Sudoeste 0 918.8 -1 42
2020-03-07 17:00:00 14 13 Sudoeste 28 Sudoeste 0 919 -1.3 41
2020-03-07 16:00:00 12.9 17 Sudoeste 30 Sudoeste 0 919.5 -1.3 45
2020-03-07 15:00:00 12 19 Sudoeste 28 Sudoeste 0 919.8 -1.2 49
2020-03-07 14:00:00 11.2 14 Sur 24 Sur 0 920.3 -0.5 47
2020-03-07 13:00:00 10.4 6 Sudeste 17 Nordeste 0 920.8 0 51
2020-03-07 12:00:00 8.9 10 Nordeste 17 Nordeste 0 921 0.3 56
2020-03-07 11:00:00 7.5 11 Norte 22 Noroeste 0 920.8 0.6 63
2020-03-07 10:00:00 5.7 12 Oeste 24 Oeste 0 920.8 1 79
2020-03-07 09:00:00 3.4 12 Oeste 18 Noroeste 0 920.7 1.6 90
2020-03-07 08:00:00 3.1 12 Noroeste 17 Noroeste 0 920.2 1.4 92
2020-03-07 07:00:00 2.6 11 Oeste 17 Oeste 0 919.8 0.8 92
2020-03-07 06:00:00 2.2 8 Oeste 15 Oeste 0 919.1 -0.2 92
2020-03-07 05:00:00 2.6 12 Noroeste 17 Oeste 0 918.8 -0.1 90
2020-03-07 04:00:00 2.8 10 Oeste 18 Sudoeste 0 919 -0.1 88
2020-03-07 03:00:00 3.7 11 Sudoeste 17 Sudoeste 0 919.3 0 85
2020-03-07 02:00:00 3.2 11 Oeste 22 Oeste 0 918.9 0.1 81
2020-03-07 01:00:00 2.7 13 Oeste 21 Oeste 0 919.1 0.7 78
2020-03-07 00:00:00 3.3 10 Oeste 28 Noroeste 0 919.3 1.5 69
2020-03-06 23:00:00 2.6 8 Oeste 18 Noroeste 0 918.8 1.9 56
2020-03-06 22:00:00 3.1 14 Noroeste 24 Noroeste 0 918.4 2.3 49
2020-03-06 21:00:00 3.7 15 Noroeste 28 Oeste 0 917.8 2.6 49
2020-03-06 20:00:00 3.9 16 Noroeste 48 Noroeste 0 916.9 2.2 49
2020-03-06 19:00:00 5.7 26 Noroeste 55 Noroeste 0 916.1 2 44
2020-03-06 18:00:00 6.5 32 Noroeste 58 Noroeste 0 915.2 1.3 45
2020-03-06 17:00:00 7.3 32 Noroeste 58 Noroeste 0 914.7 0.7 45
2020-03-06 16:00:00 7.2 26 Noroeste 58 Oeste 0 914.1 0 44
2020-03-06 15:00:00 7.3 33 Noroeste 59 Noroeste 0 913.9 0.3 45
2020-03-06 14:00:00 7.1 29 Noroeste 50 Norte 0 914 1 46
2020-03-06 13:00:00 5.8 29 Noroeste 58 Noroeste 0 914.1 2.8 49
2020-03-06 12:00:00 5.6 27 Noroeste 46 Noroeste 0 913.6 3.5 55
2020-03-06 11:00:00 4.7 23 Noroeste 50 Noroeste 0 913 3.8 67
2020-03-06 10:00:00 4.3 20 Noroeste 39 Noroeste 0 911.3 2.6 66
2020-03-06 09:00:00 2 14 Oeste 32 Oeste 0 910.1 1.6 87
2020-03-06 08:00:00 1.2 20 Oeste 35 Oeste 0 909.2 1.3 89
2020-03-06 07:00:00 2.2 26 Oeste 37 Oeste 0 908.7 0.8 74
2020-03-06 06:00:00 1.7 25 Oeste 35 Oeste 0 908.5 0.4 86
2020-03-06 05:00:00 2.4 10 Oeste 30 Oeste 0 907.9 -0.4 87
2020-03-06 04:00:00 2.9 21 Oeste 35 Oeste 0 907.9 -0.7 90
2020-03-06 03:00:00 3.1 28 Oeste 41 Oeste 0 908.1 -0.6 87
2020-03-06 02:00:00 3 23 Oeste 37 Oeste 0.1 908.3 -0.8 90
2020-03-06 01:00:00 3.1 18 Sudoeste 35 Oeste 0 908.6 -1 91
2020-03-06 00:00:00 2.8 17 Oeste 33 Oeste 0 908.7 -0.6 88
2020-03-05 23:00:00 3.2 26 Oeste 41 Oeste 0 909.1 -0.4 85
2020-03-05 22:00:00 3.6 14 Oeste 22 Oeste 0 909.6 0.8 82
2020-03-05 21:00:00 4.6 17 Oeste 30 Oeste 0 909.3 1.4 79
2020-03-05 20:00:00 4.9 14 Oeste 32 Noroeste 0 909.5 2.4 67
2020-03-05 19:00:00 7.4 18 Oeste 32 Oeste 0 908.8 2.3 66
2020-03-05 18:00:00 9 24 Oeste 41 Oeste 0 907.9 1.6 54
2020-03-05 17:00:00 10.2 24 Noroeste 41 Norte 0 907.1 0.9 49
2020-03-05 16:00:00 11.4 26 Norte 46 Oeste 0 906.5 0.8 50
2020-03-05 15:00:00 8.7 22 Oeste 52 Oeste 0 906.3 1 79
2020-03-05 14:00:00 9.7 33 Oeste 52 Oeste 0 906.2 1.1 68
2020-03-05 13:00:00 8.6 41 Oeste 65 Oeste 0 905.7 1.2 70
2020-03-05 12:00:00 9 47 Oeste 71 Oeste 0 905.3 1.7 69
2020-03-05 11:00:00 7 40 Oeste 71 Oeste 0 905.1 2.1 75
2020-03-05 10:00:00 6.7 35 Oeste 63 Oeste 0 904.5 2.3 79
2020-03-05 09:00:00 6.3 31 Oeste 58 Oeste 0 903.6 1 85
2020-03-05 08:00:00 7 39 Oeste 59 Oeste 1.5 903 -0.9 87
2020-03-05 07:00:00 8.8 33 Sudoeste 58 Sudoeste 1.3 902.2 -2.6 96
2020-03-05 06:00:00 9.1 36 Sudoeste 48 Sudoeste 0.1 902.6 -3.4 91
2020-03-05 05:00:00 9.2 29 Sur 50 Sur 0 903.9 -3.7 92
2020-03-05 04:00:00 9.8 39 Sudoeste 59 Sudoeste 0 904.8 -4.3 88
2020-03-05 03:00:00 9.8 28 Sudoeste 42 Sudoeste 0 906 -3.7 90
2020-03-05 02:00:00 9.7 22 Sudoeste 37 Sudoeste 0 907.6 -3.1 97
2020-03-05 01:00:00 9.8 20 Sudoeste 33 Sudoeste 0 909.1 -2.6 93
2020-03-05 00:00:00 9.7 15 Sudoeste 24 Sur 0 909.7 -2.1 92
2020-03-04 23:00:00 9.8 14 Sur 21 Sudoeste 0 910.7 -1.3 90
2020-03-04 22:00:00 10.5 9 Sudoeste 18 Sudoeste 0 911.7 -0.3 82
2020-03-04 21:00:00 11.2 0 Calma 18 Oeste 0 911.8 -0.2 74
2020-03-04 20:00:00 11.5 14 Oeste 30 Oeste 0 912 0 73
2020-03-04 19:00:00 12 19 Oeste 46 Oeste 0 912 -0.6 68
2020-03-04 18:00:00 12.6 30 Oeste 50 Oeste 0 912 -1.4 65
2020-03-04 17:00:00 13.4 36 Oeste 55 Oeste 0 912 -2 60
2020-03-04 16:00:00 13.1 34 Oeste 55 Oeste 0 912.6 -1.7 63
2020-03-04 15:00:00 13.1 32 Oeste 50 Oeste 0 913.4 -1.4 72
2020-03-04 14:00:00 13.3 30 Oeste 54 Oeste 0 914 -0.7 69
2020-03-04 13:00:00 12.3 32 Oeste 54 Oeste 0 914.3 -0.1 75
2020-03-04 12:00:00 12.1 32 Oeste 46 Oeste 0 914.8 0.6 75
2020-03-04 11:00:00 10.5 28 Oeste 45 Oeste 0 914.7 1.2 82
2020-03-04 10:00:00 10 25 Oeste 46 Oeste 0 914.4 1.3 83
2020-03-04 09:00:00 9 24 Oeste 35 Oeste 0 914.2 1.3 89
2020-03-04 08:00:00 8.8 23 Oeste 35 Oeste 0 913.5 0.8 94
2020-03-04 07:00:00 8.9 22 Oeste 39 Oeste 0 913.1 0.2 93
2020-03-04 06:00:00 9.2 22 Oeste 37 Oeste 0 912.9 -0.5 92
2020-03-04 05:00:00 9.4 15 Sudoeste 24 Sudoeste 0 912.7 -0.5 97
2020-03-04 04:00:00 8.8 17 Sudoeste 22 Sudoeste 0 912.9 -0.6 93
2020-03-04 03:00:00 8.9 12 Sudoeste 22 Sudoeste 0 913.4 -0.2 91
2020-03-04 02:00:00 8.6 13 Sudoeste 26 Oeste 0 913.2 -0.5 92
2020-03-04 01:00:00 8.7 12 Oeste 28 Oeste 0 913.5 0 88
2020-03-04 00:00:00 8.2 16 Sudoeste 22 Oeste 0 913.6 1.1 81
2020-03-03 23:00:00 7.7 12 Sudoeste 21 Oeste 0 913.7 1.6 69
2020-03-03 22:00:00 8.1 13 Sudoeste 24 Oeste 0 913.5 2.2 66
2020-03-03 21:00:00 8.5 14 Sudoeste 28 Oeste 0 912.5 2.2 70
2020-03-03 20:00:00 9.4 16 Oeste 42 Noroeste 0 912.1 2.3 69
2020-03-03 19:00:00 10.3 30 Oeste 58 Oeste 0 911.3 2.1 63
2020-03-03 18:00:00 11.3 39 Oeste 59 Oeste 0 910.3 1.8 60
2020-03-03 17:00:00 12.5 33 Oeste 61 Oeste 0 909.8 1.4 54
2020-03-03 16:00:00 13.8 36 Oeste 63 Oeste 0 909.2 1.4 52
2020-03-03 15:00:00 13.7 38 Oeste 68 Oeste 0 908.5 1.1 53
2020-03-03 14:00:00 13.4 42 Oeste 68 Oeste 0 908.4 0.7 59
2020-03-03 13:00:00 13.8 45 Oeste 74 Oeste 0 907.8 0.7 69
2020-03-03 12:00:00 11.6 46 Oeste 67 Oeste 0 907.4 0.5 83
2020-03-03 11:00:00 8.3 27 Oeste 41 Oeste 0 907.7 1.4 94
2020-03-03 10:00:00 6.7 19 Sudoeste 28 Sudoeste 0 907.1 0.2 97
2020-03-03 09:00:00 4.8 9 Sur 24 Oeste 0.3 906.9 -0.7 96
2020-03-03 08:00:00 3.9 10 Sudoeste 24 Oeste 0.1 906.3 -1.2 95
2020-03-03 07:00:00 3.9 15 Sudoeste 28 Oeste 0.1 906.9 -1.2 94
2020-03-03 06:00:00 3.4 10 Sudoeste 17 Sudoeste 0.1 907.6 -1.6 95
2020-03-03 05:00:00 3.1 12 Sudoeste 22 Sudoeste 0.3 907.5 -2.6 93
2020-03-03 04:00:00 3.2 17 Sudoeste 24 Sudoeste 0.2 908.1 -2.4 88
2020-03-03 03:00:00 3.6 7 Sudoeste 28 Oeste 0 909.2 -1.3 83
2020-03-03 02:00:00 3.6 21 Oeste 41 Oeste 0 910.1 -0.4 85
2020-03-03 01:00:00 3 19 Sudoeste 28 Sudoeste 0 910.5 0 89
2020-03-03 00:00:00 3.1 21 Oeste 35 Oeste 0 910.5 0.2 83
2020-03-02 23:00:00 3 26 Oeste 37 Oeste 0 910.5 0.5 82
2020-03-02 22:00:00 2.3 18 Oeste 26 Oeste 0 910.5 1.5 82
2020-03-02 21:00:00 2.5 17 Oeste 32 Oeste 0 910.3 2.4 82
2020-03-02 20:00:00 2.9 17 Oeste 30 Oeste 0 910 2.6 76
2020-03-02 19:00:00 4 12 Oeste 46 Oeste 0 909 2.3 67
2020-03-02 18:00:00 5.1 31 Oeste 52 Oeste 0 907.9 2.4 65
2020-03-02 17:00:00 5.2 24 Oeste 39 Oeste 0 907.4 2.2 70
2020-03-02 16:00:00 5.2 25 Noroeste 46 Oeste 0 906.7 2.7 64
2020-03-02 15:00:00 6.8 34 Noroeste 61 Oeste 0 905.5 2.1 48
2020-03-02 14:00:00 5.4 39 Noroeste 65 Noroeste 0 905.2 3.1 57
2020-03-02 13:00:00 6 28 Oeste 54 Oeste 0 904 2.7 68
2020-03-02 12:00:00 4.2 35 Oeste 54 Oeste 0 903.4 3.7 76
2020-03-02 11:00:00 4.3 27 Oeste 41 Oeste 0 902.1 3.7 78
2020-03-02 10:00:00 3.5 28 Oeste 46 Oeste 0 901.3 3.8 83
2020-03-02 09:00:00 3 21 Oeste 39 Oeste 0 899.7 4.3 83
2020-03-02 08:00:00 2.7 24 Oeste 42 Oeste 0.1 898.4 5 88
2020-03-02 07:00:00 2.9 29 Oeste 50 Oeste 0.2 897.5 5.8 87
2020-03-02 06:00:00 4.5 32 Oeste 55 Oeste 0 895.4 5.4 78
2020-03-02 05:00:00 6.3 44 Oeste 67 Oeste 0.3 893.4 3 77
2020-03-02 04:00:00 7.8 37 Oeste 89 Oeste 0.8 891.7 -0.1 80
2020-03-02 03:00:00 9 33 Sudoeste 59 Sudoeste 0.4 890 -4 95
2020-03-02 02:00:00 8.6 36 Sudoeste 52 Sudoeste 1.6 890.4 -5.9 99
2020-03-02 01:00:00 7.5 39 Sudoeste 52 Sur 1.9 891.8 -6.4 99
2020-03-02 00:00:00 6.2 28 Sur 46 Sudoeste 2.3 894 -5.8 98
2020-03-01 23:00:00 6 22 Sudoeste 30 Sudoeste 2.3 896.3 -4.5 93
2020-03-01 22:00:00 6.2 22 Sudoeste 46 Sudoeste 2.1 898.2 -2.9 91
2020-03-01 21:00:00 7.1 32 Sudoeste 42 Sur 0.6 899.8 -1.8 85
2020-03-01 20:00:00 9.1 24 Sudoeste 35 Sudoeste 0 900.8 -1.7 63
2020-03-01 19:00:00 10.2 26 Sudoeste 35 Sudoeste 0 901.1 -1.8 59
2020-03-01 18:00:00 11.1 21 Oeste 41 Oeste 0 901.6 -1.6 51
2020-03-01 17:00:00 11.3 29 Oeste 46 Oeste 0 902.5 -1.3 52
2020-03-01 16:00:00 11.8 32 Oeste 54 Oeste 0 902.9 -1.8 52
2020-03-01 15:00:00 12.9 26 Oeste 50 Oeste 0 903.2 -1.8 50
2020-03-01 14:00:00 12.7 33 Oeste 52 Oeste 0 903.8 -1.1 48
2020-03-01 13:00:00 11.4 32 Oeste 58 Oeste 0 904.7 0.1 56
2020-03-01 12:00:00 10.2 39 Oeste 58 Oeste 0 905 1.1 65
2020-03-01 11:00:00 9 41 Oeste 58 Oeste 0 904.9 1.3 72
2020-03-01 10:00:00 7.1 35 Oeste 50 Oeste 0.1 904.6 1.3 84
2020-03-01 09:00:00 6.4 23 Oeste 41 Oeste 0 903.9 0.4 83
2020-03-01 08:00:00 4.6 23 Oeste 39 Oeste 0.3 903.6 0 91
2020-03-01 07:00:00 4.7 19 Sudoeste 28 Sudoeste 1.7 903.3 -1.1 96
2020-03-01 06:00:00 4.5 13 Sudoeste 26 Sudoeste 0 903.5 -1.6 93
2020-03-01 05:00:00 4.6 19 Sudoeste 26 Sudoeste 0.1 903.6 -2.4 91
2020-03-01 04:00:00 4.8 18 Sudoeste 26 Sudoeste 0 904.4 -1.9 90
2020-03-01 03:00:00 5.1 7 Sur 11 Sur 0.4 905.1 -1.4 90
2020-03-01 02:00:00 5.2 9 Sur 24 Oeste 0 906 -0.6 86
2020-03-01 01:00:00 5.1 8 Sudoeste 21 Sudoeste 0.1 906.3 -0.4 85
2020-03-01 00:00:00 5.2 14 Sudoeste 24 Sudoeste 0.5 906.5 0.1 81
2020-02-29 23:00:00 5.7 8 Sur 32 Oeste 0 906.6 0.4 72
2020-02-29 22:00:00 5.9 21 Oeste 37 Oeste 0 906.7 0.7 70
2020-02-29 21:00:00 5.5 28 Oeste 48 Oeste 0 906.4 1 71
2020-02-29 20:00:00 6.4 28 Oeste 55 Oeste 0 906.2 1.4 63
2020-02-29 19:00:00 7 28 Oeste 50 Oeste 0 906 1.2 62
2020-02-29 18:00:00 8.1 30 Oeste 63 Oeste 0 905.4 0.6 56
2020-02-29 17:00:00 9.1 39 Oeste 58 Oeste 0 904.8 0.4 58
2020-02-29 16:00:00 9.6 27 Oeste 46 Oeste 0 904.8 0.6 51
2020-02-29 15:00:00 9.8 33 Oeste 63 Oeste 0 904.8 1.7 50
2020-02-29 14:00:00 10.7 46 Oeste 68 Oeste 0 904.4 1.5 48
2020-02-29 13:00:00 9.9 41 Oeste 74 Oeste 0 904.2 1.2 48
2020-02-29 12:00:00 9.7 55 Oeste 80 Oeste 0 903.1 0.8 54
2020-02-29 11:00:00 9 49 Oeste 72 Oeste 0 902.9 0.8 73
2020-02-29 10:00:00 7.8 30 Sudoeste 42 Sudoeste 0 903 1.3 94
2020-02-29 09:00:00 6.1 22 Sudoeste 35 Sudoeste 0.3 902.3 -0.2 96
2020-02-29 08:00:00 5.5 29 Sudoeste 55 Sudoeste 0 902.1 0 95
2020-02-29 07:00:00 5.4 40 Sudoeste 54 Sudoeste 0 901.7 -1.6 89
2020-02-29 06:00:00 6 34 Sudoeste 52 Sudoeste 0 902.5 -2.2 79
2020-02-29 05:00:00 6.2 30 Sudoeste 45 Sudoeste 0 902.1 -2.8 69
2020-02-29 04:00:00 6.6 34 Sudoeste 46 Sur 0 903.3 -2.6 65
2020-02-29 03:00:00 8.1 31 Sudoeste 61 Sudoeste 0 904.7 -2 60
2020-02-29 02:00:00 7.8 17 Sur 33 Sur 0 904.9 -3.2 59
2020-02-29 01:00:00 8.4 28 Sur 45 Sudoeste 0 905.9 -2.5 54
2020-02-29 00:00:00 8.5 13 Sur 28 Sur 0 906.7 -2.1 50
2020-02-28 23:00:00 10.3 9 Sur 37 Sudoeste 0 908.1 -1.2 37
2020-02-28 22:00:00 11.2 24 Sudoeste 32 Sudoeste 0 908.4 -1.2 34
2020-02-28 21:00:00 11.3 20 Sudoeste 37 Sur 0 908.8 -1.1 32
2020-02-28 20:00:00 12 26 Sudoeste 39 Sudoeste 0 909.3 -1.4 30
2020-02-28 19:00:00 12.9 26 Sur 39 Sudoeste 0 909.6 -2.2 31
2020-02-28 18:00:00 14.5 31 Sur 48 Sur 0 909.9 -3 27
2020-02-28 17:00:00 15.5 33 Sur 46 Sur 0 910.7 -3.6 25
2020-02-28 16:00:00 13.9 18 Sur 26 Sur 0 911.8 -3.8 37
2020-02-28 15:00:00 13.5 10 Sur 21 Sur 0 912.9 -3.3 40
2020-02-28 14:00:00 12.1 13 Sudeste 21 Sudeste 0 914.3 -2.2 43
2020-02-28 13:00:00 11.5 11 Sudeste 17 Sudeste 0 915.6 -0.8 41
2020-02-28 12:00:00 10.1 8 Sudeste 15 Este 0 916.2 -0.3 49
2020-02-28 11:00:00 7.2 6 Sudeste 15 Este 0 916.5 0.2 61
2020-02-28 10:00:00 6 8 Este 13 Sudeste 0 916.4 0 65
2020-02-28 09:00:00 2.7 4 Nordeste 9 Este 0 916.5 0.3 71
2020-02-28 08:00:00 2.1 4 Nordeste 11 Sur 0 916.3 -0.2 72
2020-02-28 07:00:00 2.4 5 Oeste 15 Este 0 916.4 -0.5 71
2020-02-28 06:00:00 4.2 9 Noroeste 18 Noroeste 0 916.2 -1.1 69
2020-02-28 05:00:00 4.1 9 Noroeste 21 Oeste 0 916.5 -1.2 71
2020-02-28 04:00:00 5.4 14 Oeste 33 Oeste 0 916.9 -0.6 74
2020-02-28 03:00:00 5.4 20 Oeste 28 Oeste 0 917.3 -0.4 74
2020-02-28 02:00:00 5.5 19 Oeste 26 Oeste 0 917.7 -0.1 78
2020-02-28 01:00:00 5.8 15 Oeste 33 Oeste 0 917.5 0.1 75
2020-02-28 00:00:00 6.3 20 Oeste 32 Oeste 0 917.7 0.3 76